createdAt,value
2018-10-02T00:02:33.775Z,4.70
2018-10-02T00:05:14.133Z,6.60
2018-10-02T00:07:52.857Z,4.93
2018-10-02T00:10:34.255Z,9.07
2018-10-02T00:13:16.847Z,3.73
2018-10-02T00:16:02.739Z,5.90
2018-10-02T00:18:41.662Z,6.33
2018-10-02T00:21:18.126Z,4.03
2018-10-02T00:23:57.871Z,4.53
2018-10-02T00:26:36.591Z,4.33
2018-10-02T00:29:14.898Z,4.27
2018-10-02T00:31:54.928Z,3.93
2018-10-02T00:34:35.819Z,4.07
2018-10-02T00:37:16.795Z,5.17
2018-10-02T00:39:59.203Z,3.87
2018-10-02T00:42:37.924Z,3.80
2018-10-02T00:45:20.532Z,4.30
2018-10-02T00:47:59.323Z,3.63
2018-10-02T00:50:38.793Z,4.97
2018-10-02T00:53:18.941Z,6.00
2018-10-02T00:55:55.819Z,6.17
2018-10-02T00:58:32.902Z,4.20
2018-10-02T01:01:14.901Z,4.90
2018-10-02T01:03:57.718Z,6.27
2018-10-02T01:06:36.846Z,4.00
2018-10-02T01:09:19.863Z,4.03
2018-10-02T01:11:57.327Z,4.07
2018-10-02T01:14:36.075Z,3.63
2018-10-02T01:17:12.135Z,3.47
2018-10-02T01:19:49.424Z,4.73
2018-10-02T01:22:25.888Z,3.37
2018-10-02T01:25:05.430Z,5.90
2018-10-02T01:27:41.894Z,3.53
2018-10-02T01:30:17.743Z,3.10
2018-10-02T01:32:53.801Z,3.13
2018-10-02T01:35:29.453Z,3.90
2018-10-02T01:38:05.924Z,6.00
2018-10-02T01:40:43.613Z,3.80
2018-10-02T01:43:18.850Z,3.40
2018-10-02T01:45:54.908Z,5.90
2018-10-02T01:48:31.585Z,3.13
2018-10-02T01:51:09.070Z,3.17
2018-10-02T01:53:42.876Z,3.50
2018-10-02T01:56:19.139Z,3.47
2018-10-02T01:58:56.633Z,4.27
2018-10-02T02:01:32.892Z,4.53
2018-10-02T02:04:11.822Z,3.37
2018-10-02T02:06:55.867Z,3.90
2018-10-02T02:09:38.339Z,3.90
2018-10-02T02:12:20.337Z,7.73
2018-10-02T02:14:58.783Z,4.57
2018-10-02T02:17:41.191Z,4.33
2018-10-02T02:20:20.932Z,4.97
2018-10-02T02:23:03.954Z,3.63
2018-10-02T02:25:51.889Z,6.10
2018-10-02T02:28:34.704Z,4.83
2018-10-02T02:31:23.866Z,4.03
2018-10-02T02:33:59.925Z,7.43
2018-10-02T02:36:41.923Z,3.63
2018-10-02T02:39:20.849Z,3.47
2018-10-02T02:42:05.304Z,4.47
2018-10-02T02:44:44.837Z,3.67
2018-10-02T02:47:25.201Z,3.60
2018-10-02T02:50:04.946Z,4.87
2018-10-02T02:52:52.677Z,5.43
2018-10-02T02:55:32.625Z,3.60
2018-10-02T02:58:16.056Z,3.53
2018-10-02T03:01:09.928Z,3.70
2018-10-02T03:03:59.912Z,2.90
2018-10-02T03:06:56.450Z,4.13
2018-10-02T03:09:34.964Z,4.47
2018-10-02T03:12:15.942Z,6.07
2018-10-02T03:14:58.956Z,6.17
2018-10-02T03:17:40.959Z,5.47
2018-10-02T03:20:21.928Z,4.43
2018-10-02T03:22:59.420Z,4.30
2018-10-02T03:25:38.958Z,4.83
2018-10-02T03:28:15.382Z,6.37
2018-10-02T03:30:53.119Z,4.50
2018-10-02T03:33:28.566Z,4.47
2018-10-02T03:36:08.515Z,4.63
2018-10-02T03:38:46.005Z,6.17
2018-10-02T03:41:23.905Z,5.40
2018-10-02T03:44:07.949Z,7.57
2018-10-02T03:46:42.985Z,4.50
2018-10-02T03:49:19.856Z,4.57
2018-10-02T03:51:57.968Z,8.50
2018-10-02T03:54:33.827Z,6.03
2018-10-02T03:57:12.947Z,4.67
2018-10-02T03:59:49.004Z,4.70
2018-10-02T04:02:25.881Z,5.20
2018-10-02T04:05:01.939Z,10.80
2018-10-02T04:07:39.019Z,4.37
2018-10-02T04:10:15.897Z,5.67
2018-10-02T04:12:52.979Z,7.83
2018-10-02T04:15:34.156Z,5.20
2018-10-02T04:18:14.415Z,5.23
2018-10-02T04:20:51.047Z,5.13
2018-10-02T04:23:31.342Z,5.17
2018-10-02T04:26:06.988Z,6.87
2018-10-02T04:28:42.850Z,6.77
2018-10-02T04:31:18.414Z,5.03
2018-10-02T04:33:53.988Z,6.53
2018-10-02T04:36:30.194Z,8.97
2018-10-02T04:39:08.913Z,24.30
2018-10-02T04:41:57.072Z,25.23
2018-10-02T04:44:34.959Z,24.23
2018-10-02T04:47:13.061Z,18.50
2018-10-02T04:49:52.046Z,8.07
2018-10-02T04:52:27.841Z,8.87
2018-10-02T04:55:06.846Z,6.40
2018-10-02T04:57:43.026Z,8.70
2018-10-02T05:00:21.457Z,5.70
2018-10-02T05:03:00.065Z,5.40
2018-10-02T05:05:42.062Z,5.43
2018-10-02T05:08:22.048Z,6.67
2018-10-02T05:11:00.943Z,8.23
2018-10-02T05:13:41.087Z,7.17
2018-10-02T05:33:39.601Z,7.10
2018-10-02T05:39:19.162Z,5.90
2018-10-02T05:59:34.598Z,5.40
2018-10-02T06:02:14.676Z,6.30
2018-10-02T06:22:11.205Z,6.13
2018-10-02T06:24:57.103Z,6.10
2018-10-02T06:44:50.264Z,5.13
2018-10-02T06:47:30.209Z,4.33
2018-10-02T07:07:35.060Z,5.87
2018-10-02T07:10:14.589Z,4.27
2018-10-02T07:30:11.433Z,5.43
2018-10-02T07:32:53.465Z,7.60
2018-10-02T07:52:47.413Z,9.73
2018-10-02T07:55:27.416Z,6.00
2018-10-02T08:15:22.379Z,7.50
2018-10-02T08:17:59.523Z,6.97
2018-10-02T08:20:36.359Z,6.67
2018-10-02T08:23:18.127Z,5.20
2018-10-02T08:26:13.431Z,5.53
2018-10-02T08:46:07.827Z,10.73
2018-10-02T08:48:50.847Z,7.20
2018-10-02T09:08:43.392Z,5.50
2018-10-02T09:11:30.740Z,7.53
2018-10-02T09:14:09.434Z,5.73
2018-10-02T09:16:45.499Z,4.37
2018-10-02T09:36:42.218Z,6.30
2018-10-02T09:39:23.123Z,3.77
2018-10-02T09:59:20.585Z,7.07
2018-10-02T10:02:04.970Z,9.23
2018-10-02T10:24:48.593Z,6.50
2018-10-02T10:27:23.420Z,5.47
2018-10-02T10:30:03.573Z,5.10
2018-10-02T10:32:43.523Z,6.20
2018-10-02T10:35:21.423Z,11.00
2018-10-02T10:37:59.524Z,7.53
2018-10-02T10:40:36.459Z,6.20
2018-10-02T10:43:14.512Z,5.30
2018-10-02T10:45:49.542Z,5.80
2018-10-02T10:48:31.543Z,6.03
2018-10-02T10:51:06.571Z,6.30
2018-10-02T10:53:42.636Z,6.10
2018-10-02T10:56:18.508Z,7.17
2018-10-02T10:58:55.009Z,5.17
2018-10-02T11:01:30.601Z,7.03
2018-10-02T11:04:06.449Z,6.13
2018-10-02T11:06:41.484Z,8.03
2018-10-02T11:09:24.551Z,5.13
2018-10-02T11:12:09.030Z,5.30
2018-10-02T11:14:43.584Z,5.43
2018-10-02T11:17:21.036Z,5.37
2018-10-02T11:19:59.593Z,6.47
2018-10-02T11:22:36.023Z,5.67
2018-10-02T11:25:12.045Z,6.17
2018-10-02T11:27:50.225Z,6.60
2018-10-02T11:30:35.908Z,5.90
2018-10-02T11:33:10.531Z,5.70
2018-10-02T11:35:47.612Z,5.10
2018-10-02T11:38:29.631Z,5.13
2018-10-02T11:41:06.027Z,6.37
2018-10-02T11:43:40.527Z,6.20
2018-10-02T11:46:26.589Z,6.00
2018-10-02T11:49:04.339Z,4.80
2018-10-02T11:51:48.328Z,4.77
2018-10-02T12:11:42.142Z,4.67
2018-10-02T12:14:17.051Z,6.93
2018-10-02T12:34:13.579Z,6.13
2018-10-02T12:36:49.638Z,4.43
2018-10-02T12:59:35.652Z,3.37
2018-10-02T13:02:14.582Z,4.37
2018-10-02T13:04:53.505Z,8.30
2018-10-02T13:07:30.585Z,4.73
2018-10-02T13:27:25.587Z,3.87
2018-10-02T13:30:13.323Z,3.40
2018-10-02T13:50:06.687Z,7.73
2018-10-02T13:52:46.435Z,5.20
2018-10-02T14:12:39.394Z,3.70
2018-10-02T14:15:21.864Z,4.10
2018-10-02T14:35:15.781Z,6.77
2018-10-02T14:37:52.047Z,4.10
2018-10-02T14:57:46.645Z,4.77
2018-10-02T15:00:24.954Z,2.00
2018-10-02T15:20:30.838Z,2.90
2018-10-02T15:23:07.899Z,2.30
2018-10-02T15:43:00.856Z,5.37
2018-10-02T15:45:48.385Z,5.00
2018-10-02T15:48:31.812Z,3.77
2018-10-02T15:51:07.939Z,2.30
2018-10-02T15:53:44.142Z,4.00
2018-10-02T15:56:19.342Z,6.13
2018-10-02T15:58:58.910Z,1.77
2018-10-02T16:18:51.872Z,1.80
2018-10-02T16:21:26.904Z,5.83
2018-10-02T16:44:23.434Z,3.60
2018-10-02T17:04:17.958Z,2.53
2018-10-02T17:06:53.406Z,3.60
2018-10-02T17:26:55.987Z,6.67
2018-10-02T17:29:31.021Z,2.90
2018-10-02T17:32:07.085Z,5.63
2018-10-02T17:34:43.957Z,5.47
2018-10-02T17:37:20.012Z,3.50
2018-10-02T17:40:05.448Z,3.90
2018-10-02T17:42:41.141Z,2.70
2018-10-02T17:45:21.097Z,3.03
2018-10-02T17:47:57.147Z,2.40
2018-10-02T17:50:32.386Z,6.87
2018-10-02T17:53:08.033Z,2.90
2018-10-02T17:55:45.113Z,4.37
2018-10-02T17:58:19.945Z,5.10
2018-10-02T18:00:54.977Z,6.90
2018-10-02T18:03:30.831Z,4.43
2018-10-02T18:06:07.091Z,5.63
2018-10-02T18:08:43.672Z,4.00
2018-10-02T18:11:17.979Z,4.57
2018-10-02T18:14:13.924Z,2.60
2018-10-02T18:16:58.361Z,2.40
2018-10-02T18:19:34.416Z,3.10
2018-10-02T18:22:11.084Z,2.47
2018-10-02T18:24:47.147Z,6.73
2018-10-02T18:27:26.591Z,3.10
2018-10-02T18:47:22.715Z,2.13
2018-10-02T18:49:58.156Z,2.20
2018-10-02T18:52:33.188Z,3.90
2018-10-02T18:55:10.066Z,6.13
2018-10-02T19:15:03.437Z,7.17
2018-10-02T19:17:40.627Z,7.80
2018-10-02T19:20:17.806Z,6.33
2018-10-02T19:22:53.249Z,2.67
2018-10-02T19:25:31.763Z,5.33
2018-10-02T19:45:28.203Z,4.03
2018-10-02T19:48:05.644Z,3.77
2018-10-02T20:07:57.222Z,12.43
2018-10-02T20:27:48.131Z,3.97
2018-10-02T20:47:45.187Z,5.30
2018-10-02T20:50:20.219Z,5.70
2018-10-02T21:10:11.950Z,4.30
2018-10-02T21:12:49.853Z,11.33
2018-10-02T21:32:41.170Z,4.70
2018-10-02T21:35:15.179Z,5.43
2018-10-02T21:37:50.214Z,14.27
2018-10-02T21:40:25.072Z,5.43
2018-10-02T21:43:00.283Z,9.80
2018-10-02T21:45:38.183Z,4.60
2018-10-02T21:48:13.216Z,5.33
2018-10-02T22:08:11.301Z,3.83
2018-10-02T22:10:49.199Z,4.30
2018-10-02T22:30:43.387Z,4.07
2018-10-02T22:33:22.395Z,5.70
2018-10-02T22:53:21.413Z,3.40
2018-10-02T22:56:02.591Z,4.10
2018-10-02T23:15:56.373Z,2.50
2018-10-02T23:18:32.425Z,3.73
2018-10-02T23:21:08.690Z,3.13
2018-10-02T23:23:44.134Z,8.10
2018-10-02T23:26:18.346Z,6.40
2018-10-02T23:46:11.303Z,2.50
2018-10-02T23:48:46.337Z,2.23
